Time;durP1;ratioP1;P1;durP2;ratioP2;P2;SDS_P1;SDS_P2;PMS_P1;PMS_P2;Temp;Humidity;BMP_temperature;BMP_pressure;BME280_temperature;BME280_humidity;BME280_pressure;Samples;Min_cycle;Max_cycle;Signal;HPM_P1;HPM_P2
2022/03/19 00:01:58;;;;;;;13.38;1.38;;;;;;;0.59;100.00;104783.56;4810595;29;20049;-76
2022/03/19 00:04:24;;;;;;;10.55;1.70;;;;;;;0.61;100.00;104780.88;4787859;29;20440;-77
2022/03/19 00:06:50;;;;;;;17.27;2.25;;;;;;;0.59;100.00;104782.69;4790257;29;20158;-76
2022/03/19 00:09:16;;;;;;;12.95;1.63;;;;;;;0.47;100.00;104755.59;4802603;29;20045;-76
2022/03/19 00:11:41;;;;;;;19.73;1.63;;;;;;;0.51;100.00;104772.28;4827037;29;20035;-77
2022/03/19 00:14:11;;;;;;;18.83;2.67;;;;;;;0.34;100.00;104754.13;4798629;29;20045;-76
2022/03/19 00:16:36;;;;;;;14.70;2.00;;;;;;;0.39;100.00;104760.19;4812887;29;20041;-76
2022/03/19 00:19:02;;;;;;;13.68;1.83;;;;;;;0.48;100.00;104788.25;4791055;29;20035;-77
2022/03/19 00:21:27;;;;;;;19.13;2.30;;;;;;;0.28;100.00;104777.25;4773945;30;20043;-77
2022/03/19 00:23:53;;;;;;;18.45;2.65;;;;;;;0.02;100.00;104759.25;4778011;29;20041;-77
2022/03/19 00:26:20;;;;;;;20.25;2.40;;;;;;;0.17;100.00;104793.38;4809579;29;20042;-77
2022/03/19 00:28:45;;;;;;;16.33;2.45;;;;;;;0.13;100.00;104781.97;4795256;29;20034;-76
2022/03/19 00:31:11;;;;;;;17.75;1.73;;;;;;;0.16;100.00;104775.72;4809330;29;20097;-77
2022/03/19 00:33:36;;;;;;;19.88;1.70;;;;;;;0.19;100.00;104762.41;4826231;29;20113;-77
2022/03/19 00:36:02;;;;;;;18.95;1.90;;;;;;;0.51;100.00;104779.38;4795905;29;20114;-76
2022/03/19 00:38:28;;;;;;;17.17;1.90;;;;;;;0.63;100.00;104795.84;4775882;29;20035;-77
2022/03/19 00:40:54;;;;;;;20.27;2.05;;;;;;;0.60;100.00;104782.69;4772792;30;20124;-77
2022/03/19 00:43:19;;;;;;;15.88;1.83;;;;;;;0.61;100.00;104783.53;4774484;29;20038;-77
2022/03/19 00:45:46;;;;;;;10.23;1.30;;;;;;;0.46;100.00;104788.31;4789762;30;20027;-77
2022/03/19 00:48:12;;;;;;;18.63;2.80;;;;;;;0.35;100.00;104787.66;4773264;29;20070;-77
2022/03/19 00:50:38;;;;;;;14.60;2.30;;;;;;;0.26;100.00;104779.03;4822726;29;20058;-77
2022/03/19 00:53:03;;;;;;;13.75;2.22;;;;;;;0.22;100.00;104776.44;4809115;29;20045;-77
2022/03/19 00:55:29;;;;;;;17.17;2.05;;;;;;;0.27;100.00;104791.41;4779257;29;20424;-77
2022/03/19 00:57:54;;;;;;;15.65;2.45;;;;;;;0.24;100.00;104797.63;4820280;29;20541;-77
2022/03/19 01:00:24;;;;;;;21.05;2.30;;;;;;;0.12;100.00;104776.69;4825321;29;20193;-77
2022/03/19 01:02:51;;;;;;;13.95;2.15;;;;;;;0.20;100.00;104782.72;4821504;29;20544;-77
2022/03/19 01:05:17;;;;;;;13.32;2.10;;;;;;;0.11;100.00;104759.06;4828238;29;20049;-77
2022/03/19 01:07:48;;;;;;;12.57;1.95;;;;;;;0.14;100.00;104782.84;4795968;29;20096;-77
2022/03/19 01:10:16;;;;;;;21.17;2.92;;;;;;;0.00;100.00;104793.72;4822039;29;20095;-77
2022/03/19 01:12:43;;;;;;;21.02;3.00;;;;;;;-0.11;100.00;104790.41;4808005;29;20030;-77
2022/03/19 01:15:10;;;;;;;24.40;3.70;;;;;;;-0.10;100.00;104793.06;4822339;29;20054;-77
2022/03/19 01:17:36;;;;;;;21.15;2.63;;;;;;;-0.12;100.00;104781.59;4793552;29;20034;-77
2022/03/19 01:20:02;;;;;;;20.10;2.80;;;;;;;-0.21;100.00;104763.25;4805194;29;20030;-77
2022/03/19 01:22:28;;;;;;;16.42;2.85;;;;;;;-0.10;100.00;104785.09;4806731;29;20046;-77
2022/03/19 01:24:55;;;;;;;19.13;2.63;;;;;;;-0.06;100.00;104786.78;4828765;29;20102;-77
2022/03/19 01:27:21;;;;;;;13.90;2.75;;;;;;;-0.13;100.00;104777.22;4810466;29;20086;-77
2022/03/19 01:29:47;;;;;;;15.07;2.70;;;;;;;-0.09;100.00;104791.28;4788859;29;20069;-77
2022/03/19 01:32:12;;;;;;;18.42;2.38;;;;;;;-0.09;100.00;104793.91;4788547;29;20039;-77
2022/03/19 01:34:38;;;;;;;17.92;2.65;;;;;;;-0.08;100.00;104787.72;4774030;30;20384;-76
2022/03/19 01:37:04;;;;;;;15.57;2.67;;;;;;;-0.09;100.00;104791.28;4776560;29;20054;-77
2022/03/19 01:39:29;;;;;;;15.18;3.33;;;;;;;-0.12;100.00;104788.69;4816446;29;20506;-77
2022/03/19 01:41:55;;;;;;;14.65;2.65;;;;;;;-0.11;100.00;104785.13;4790522;29;20141;-77
2022/03/19 01:44:21;;;;;;;16.60;2.28;;;;;;;-0.13;100.00;104782.53;4799765;29;20027;-77
2022/03/19 01:46:58;;;;;;;28.92;3.67;;;;;;;-0.25;100.00;104782.75;4794688;29;20343;-77
2022/03/19 01:49:24;;;;;;;25.13;3.10;;;;;;;-0.29;100.00;104789.88;4805181;29;20035;-77
2022/03/19 01:51:50;;;;;;;20.80;2.95;;;;;;;-0.43;100.00;104768.13;4805799;29;20104;-77
2022/03/19 01:54:16;;;;;;;21.15;3.58;;;;;;;-0.37;100.00;104783.00;4815573;29;20469;-77
2022/03/19 01:56:44;;;;;;;29.58;4.57;;;;;;;-0.28;100.00;104783.69;4808813;29;20038;-77
2022/03/19 01:59:11;;;;;;;15.50;2.92;;;;;;;-0.21;100.00;104789.72;4797237;29;20179;-77
2022/03/19 02:01:38;;;;;;;18.27;3.30;;;;;;;-0.32;100.00;104791.72;4775687;29;20034;-77
2022/03/19 02:04:04;;;;;;;22.27;3.47;;;;;;;-0.38;100.00;104778.59;4790258;29;20031;-77
2022/03/19 02:06:30;;;;;;;24.23;3.38;;;;;;;-0.55;100.00;104740.13;4803789;29;20035;-76
2022/03/19 02:08:57;;;;;;;21.75;2.92;;;;;;;-0.31;100.00;104793.47;4784641;29;20027;-77
2022/03/19 02:11:24;;;;;;;17.52;3.10;;;;;;;-0.48;100.00;104772.63;4743015;30;20032;-77
2022/03/19 02:13:49;;;;;;;18.45;3.40;;;;;;;-0.47;100.00;104772.56;4773928;29;20047;-77
2022/03/19 02:16:14;;;;;;;18.05;3.75;;;;;;;-0.43;100.00;104768.13;4775668;30;20412;-77
2022/03/19 02:18:40;;;;;;;21.52;3.85;;;;;;;-0.36;100.00;104766.22;4791716;29;20122;-77
2022/03/19 02:21:05;;;;;;;29.30;3.72;;;;;;;-0.32;100.00;104779.38;4821784;29;20057;-77
2022/03/19 02:26:25;;;;;;;17.02;3.70;;;;;;;-0.45;100.00;104787.56;4728312;30;20457;-77
2022/03/19 02:28:51;;;;;;;20.48;3.50;;;;;;;-0.46;100.00;104789.34;4776981;29;20041;-77
2022/03/19 02:31:16;;;;;;;25.13;3.75;;;;;;;-0.44;100.00;104786.66;4793472;29;20038;-77
2022/03/19 02:33:42;;;;;;;25.38;3.85;;;;;;;-0.52;100.00;104770.94;4795645;29;20027;-77
2022/03/19 02:36:08;;;;;;;16.67;3.20;;;;;;;-0.48;100.00;104796.44;4777812;29;20136;-76
2022/03/19 02:38:35;;;;;;;21.45;3.55;;;;;;;-0.60;100.00;104792.22;4774159;29;20034;-76
2022/03/19 02:41:04;;;;;;;12.57;3.00;;;;;;;-0.65;100.00;104790.59;4819725;29;20076;-76
2022/03/19 02:43:30;;;;;;;16.27;3.33;;;;;;;-0.61;100.00;104794.91;4821498;29;20042;-76
2022/03/19 02:45:55;;;;;;;23.00;4.00;;;;;;;-0.64;100.00;104769.38;4823404;29;20034;-76
2022/03/19 02:48:24;;;;;;;23.98;4.20;;;;;;;-0.52;100.00;104785.03;4776814;30;20092;-77
2022/03/19 02:50:49;;;;;;;17.05;3.05;;;;;;;-0.59;100.00;104771.97;4787820;30;20104;-76
2022/03/19 02:53:15;;;;;;;19.42;3.17;;;;;;;-0.71;100.00;104770.41;4772907;29;20034;-77
2022/03/19 02:55:41;;;;;;;15.02;3.55;;;;;;;-0.73;100.00;104780.13;4772374;30;20526;-76
2022/03/19 02:58:09;;;;;;;20.60;3.30;;;;;;;-0.75;100.00;104787.22;4771859;30;20118;-76
2022/03/19 03:00:36;;;;;;;30.20;4.20;;;;;;;-0.65;100.00;104794.09;4774108;29;20055;-76
2022/03/19 03:03:01;;;;;;;23.15;3.97;;;;;;;-0.66;100.00;104792.38;4759009;30;20123;-76
2022/03/19 03:05:27;;;;;;;16.17;2.65;;;;;;;-0.85;100.00;104764.50;4775584;29;20109;-76
2022/03/19 03:07:52;;;;;;;22.45;4.20;;;;;;;-0.81;100.00;104779.41;4823609;29;20137;-76
2022/03/19 03:10:19;;;;;;;24.02;4.20;;;;;;;-0.75;100.00;104795.16;4811457;29;20038;-76
2022/03/19 03:12:45;;;;;;;25.95;3.97;;;;;;;-0.80;100.00;104800.50;4826858;29;20108;-76
2022/03/19 03:15:10;;;;;;;21.85;3.65;;;;;;;-0.87;100.00;104792.72;4802782;29;20031;-76
2022/03/19 03:17:36;;;;;;;24.35;4.13;;;;;;;-0.69;100.00;104803.00;4776137;30;20363;-76
2022/03/19 03:20:03;;;;;;;27.42;3.80;;;;;;;-0.57;100.00;104805.41;4785774;29;20045;-76
2022/03/19 03:22:29;;;;;;;23.73;4.20;;;;;;;-0.53;100.00;104793.88;4827284;29;20045;-76
2022/03/19 03:24:55;;;;;;;19.23;3.35;;;;;;;-0.55;100.00;104806.25;4792415;29;20069;-76
2022/03/19 03:27:21;;;;;;;18.00;3.40;;;;;;;-0.56;100.00;104816.88;4794141;30;20035;-76
2022/03/19 03:29:46;;;;;;;18.98;3.75;;;;;;;-0.73;100.00;104772.19;4777920;30;20091;-76
2022/03/19 03:32:12;;;;;;;24.42;4.20;;;;;;;-0.40;100.00;104817.44;4775994;29;20050;-76
2022/03/19 03:34:38;;;;;;;29.02;4.63;;;;;;;-0.50;100.00;104801.78;4793397;29;20075;-76
2022/03/19 03:37:04;;;;;;;20.55;3.40;;;;;;;-0.54;100.00;104829.16;4762822;29;20091;-77
2022/03/19 03:39:29;;;;;;;20.48;3.08;;;;;;;-0.59;100.00;104831.03;4823000;29;20042;-77
2022/03/19 03:41:54;;;;;;;25.92;5.05;;;;;;;-0.76;100.00;104831.31;4830282;29;20054;-76
2022/03/19 03:44:20;;;;;;;18.10;3.10;;;;;;;-0.88;100.00;104826.22;4812277;29;20036;-76
2022/03/19 03:46:45;;;;;;;18.77;3.53;;;;;;;-1.23;100.00;104790.66;4764812;30;20130;-76
2022/03/19 03:49:11;;;;;;;17.30;3.40;;;;;;;-0.92;100.00;104823.69;4782746;29;20041;-76
2022/03/19 03:51:38;;;;;;;19.58;3.15;;;;;;;-0.99;100.00;104821.13;4824752;29;20037;-77
2022/03/19 03:54:05;;;;;;;22.88;3.60;;;;;;;-0.94;100.00;104831.63;4811127;29;20069;-77
2022/03/19 03:56:31;;;;;;;18.15;3.58;;;;;;;-1.06;100.00;104816.84;4809641;29;20085;-76
2022/03/19 03:58:57;;;;;;;19.90;3.35;;;;;;;-0.97;100.00;104834.31;4810791;29;20369;-76
2022/03/19 04:01:22;;;;;;;17.25;3.53;;;;;;;-1.01;100.00;104833.47;4790449;30;20035;-77
2022/03/19 04:03:48;;;;;;;17.90;3.97;;;;;;;-0.99;100.00;104826.41;4773909;30;20047;-76
2022/03/19 04:06:13;;;;;;;16.67;3.38;;;;;;;-0.97;100.00;104829.88;4760214;30;20107;-76
2022/03/19 04:08:39;;;;;;;22.25;3.75;;;;;;;-0.90;100.00;104843.00;4783461;29;20042;-76
2022/03/19 04:11:05;;;;;;;17.58;3.50;;;;;;;-1.20;100.00;104805.59;4777028;29;20145;-77
2022/03/19 04:13:31;;;;;;;18.73;3.55;;;;;;;-1.04;100.00;104833.53;4789996;29;20147;-76
2022/03/19 04:15:56;;;;;;;18.55;3.00;;;;;;;-1.05;100.00;104849.44;4791913;29;20066;-76
2022/03/19 04:18:23;;;;;;;19.73;3.65;;;;;;;-1.19;100.00;104847.00;4806680;29;20121;-76
2022/03/19 04:20:49;;;;;;;17.98;3.25;;;;;;;-1.20;100.00;104848.75;4792123;29;20474;-77
2022/03/19 04:23:15;;;;;;;19.27;3.03;;;;;;;-1.29;100.00;104840.09;4777389;29;20080;-76
2022/03/19 04:25:40;;;;;;;18.15;2.83;;;;;;;-1.28;100.00;104850.66;4821676;29;20473;-76
2022/03/19 04:28:06;;;;;;;22.63;4.78;;;;;;;-1.27;100.00;104844.44;4792021;29;20061;-77
2022/03/19 04:30:31;;;;;;;19.23;3.30;;;;;;;-1.33;100.00;104841.91;4820820;29;20061;-76
2022/03/19 04:32:59;;;;;;;14.88;3.58;;;;;;;-1.21;100.00;104848.78;4825386;29;20030;-76
2022/03/19 04:38:12;;;;;;;21.73;3.45;;;;;;;-1.14;100.00;104858.38;4830142;29;20045;-76
2022/03/19 04:40:40;;;;;;;14.38;3.17;;;;;;;-1.15;100.00;104850.47;4811855;29;20096;-76
2022/03/19 04:43:06;;;;;;;17.02;3.30;;;;;;;-1.20;100.00;104853.16;4831547;29;20117;-76
2022/03/19 04:45:32;;;;;;;21.40;3.50;;;;;;;-1.37;100.00;104857.81;4809890;29;20819;-76
2022/03/19 04:47:57;;;;;;;16.42;3.40;;;;;;;-1.42;100.00;104864.06;4806844;29;20034;-76
2022/03/19 04:50:23;;;;;;;20.27;3.60;;;;;;;-1.50;100.00;104839.50;4794203;29;20179;-76
2022/03/19 04:52:50;;;;;;;14.75;3.97;;;;;;;-1.39;100.00;104851.69;4783911;29;20043;-76
2022/03/19 04:55:16;;;;;;;24.95;3.83;;;;;;;-1.27;100.00;104856.78;4791302;29;20059;-76
2022/03/19 04:57:42;;;;;;;20.20;4.53;;;;;;;-1.17;100.00;104846.97;4806317;29;20061;-76
2022/03/19 05:00:10;;;;;;;23.30;4.93;;;;;;;-0.99;100.00;104854.63;4791418;29;20469;-76
2022/03/19 05:02:35;;;;;;;20.88;4.38;;;;;;;-0.90;100.00;104859.75;4805259;29;20031;-76
2022/03/19 05:05:01;;;;;;;22.30;4.43;;;;;;;-1.00;100.00;104835.22;4781139;29;20384;-76
2022/03/19 05:07:27;;;;;;;16.25;3.83;;;;;;;-0.90;100.00;104846.53;4778917;30;20444;-76
2022/03/19 05:12:39;;;;;;;15.87;4.00;;;;;;;-0.90;100.00;104850.94;4807569;29;20045;-76
2022/03/19 05:15:06;;;;;;;19.90;3.70;;;;;;;-0.60;100.00;104865.44;4807578;29;20175;-76
2022/03/19 05:17:32;;;;;;;20.33;4.00;;;;;;;-0.42;100.00;104864.25;4789756;29;20035;-76
2022/03/19 05:19:58;;;;;;;22.70;4.32;;;;;;;-0.68;100.00;104815.31;4791252;29;20058;-76
2022/03/19 05:22:23;;;;;;;24.73;4.78;;;;;;;-0.33;100.00;104851.72;4788364;30;20042;-77
2022/03/19 05:24:49;;;;;;;26.90;4.30;;;;;;;-0.38;100.00;104847.41;4774695;29;20450;-76
2022/03/19 05:27:16;;;;;;;17.90;4.15;;;;;;;-0.18;100.00;104879.66;4801454;29;20045;-77
2022/03/19 05:29:41;;;;;;;21.63;4.30;;;;;;;-0.18;100.00;104881.44;4805350;29;20023;-76
2022/03/19 05:32:08;;;;;;;26.38;4.80;;;;;;;-0.27;100.00;104874.53;4802598;29;20057;-76
2022/03/19 05:34:34;;;;;;;21.88;4.05;;;;;;;-0.22;100.00;104888.56;4824377;29;20026;-76
2022/03/19 05:37:04;;;;;;;19.20;4.25;;;;;;;-0.38;100.00;104889.75;4804404;29;20030;-77
2022/03/19 05:39:31;;;;;;;19.17;4.40;;;;;;;-0.55;100.00;104898.84;4801954;29;20038;-76
2022/03/19 05:41:57;;;;;;;17.67;3.92;;;;;;;-0.71;100.00;104881.50;4824470;29;20042;-76
2022/03/19 05:44:23;;;;;;;16.08;3.70;;;;;;;-0.56;100.00;104904.19;4815353;29;20029;-77
2022/03/19 05:46:48;;;;;;;14.43;4.57;;;;;;;-0.70;100.00;104901.75;4786006;29;20064;-77
2022/03/19 05:49:14;;;;;;;17.05;3.35;;;;;;;-0.93;100.00;104915.31;4794346;29;20062;-76
2022/03/19 05:51:39;;;;;;;16.30;3.40;;;;;;;-0.95;100.00;104911.84;4799446;29;20487;-76
2022/03/19 05:54:05;;;;;;;16.15;3.67;;;;;;;-0.90;100.00;104904.69;4776165;29;20026;-77
2022/03/19 05:56:30;;;;;;;17.98;4.18;;;;;;;-0.81;100.00;104914.28;4795113;29;20042;-76
2022/03/19 05:58:56;;;;;;;20.92;4.45;;;;;;;-0.92;100.00;104892.41;4793127;29;20045;-77
2022/03/19 06:01:26;;;;;;;13.98;4.00;;;;;;;-0.64;100.00;104924.59;4810296;29;20094;-76
2022/03/19 06:03:55;;;;;;;16.02;3.55;;;;;;;-0.59;100.00;104923.63;4786042;29;20023;-76
2022/03/19 06:06:21;;;;;;;22.35;3.92;;;;;;;-0.74;100.00;104894.75;4807417;29;20494;-76
2022/03/19 06:08:46;;;;;;;18.88;4.07;;;;;;;-0.57;100.00;104913.88;4805177;29;20073;-77
2022/03/19 06:11:12;;;;;;;20.95;3.53;;;;;;;-0.47;100.00;104926.03;4805589;29;20066;-77
2022/03/19 06:13:37;;;;;;;22.83;4.00;;;;;;;-0.45;100.00;104919.88;4791827;29;20522;-76
2022/03/19 06:16:03;;;;;;;25.95;4.07;;;;;;;-0.34;100.00;104925.84;4791275;29;20042;-76
2022/03/19 06:18:29;;;;;;;16.58;3.97;;;;;;;-0.32;100.00;104916.13;4809984;29;20038;-76
2022/03/19 06:20:56;;;;;;;21.63;4.10;;;;;;;-0.19;100.00;104915.00;4804354;29;20525;-76
2022/03/19 06:23:22;;;;;;;13.85;3.47;;;;;;;0.01;100.00;104929.66;4801315;29;20033;-77
2022/03/19 06:25:49;;;;;;;17.65;4.00;;;;;;;0.21;100.00;104931.00;4772349;30;20031;-77
2022/03/19 06:28:15;;;;;;;19.73;3.53;;;;;;;0.34;100.00;104934.28;4774211;29;20046;-77
2022/03/19 06:30:41;;;;;;;17.27;3.80;;;;;;;0.41;100.00;104927.94;4772968;30;20031;-77
2022/03/19 06:33:06;;;;;;;18.15;4.07;;;;;;;0.47;100.00;104942.88;4757208;30;20058;-77
2022/03/19 06:38:17;;;;;;;16.27;3.60;;;;;;;0.61;100.00;104927.53;4776449;30;20077;-77
2022/03/19 06:40:43;;;;;;;17.73;3.63;;;;;;;0.78;100.00;104936.91;4783999;29;20082;-78
2022/03/19 06:43:08;;;;;;;17.48;3.55;;;;;;;0.79;100.00;104928.91;4828193;29;20396;-77
2022/03/19 06:45:35;;;;;;;15.07;3.90;;;;;;;0.74;100.00;104932.59;4791887;29;20045;-78
2022/03/19 06:48:01;;;;;;;20.00;4.45;;;;;;;0.98;100.00;104937.34;4793369;29;20027;-78
2022/03/19 06:50:26;;;;;;;19.25;3.38;;;;;;;1.05;100.00;104919.50;4792437;29;20415;-77
2022/03/19 06:52:52;;;;;;;14.90;3.47;;;;;;;1.36;100.00;104946.19;4808013;29;20126;-78
2022/03/19 06:55:17;;;;;;;19.65;3.80;;;;;;;1.52;100.00;104938.69;4809621;29;20039;-77
2022/03/19 06:57:42;;;;;;;16.25;3.50;;;;;;;1.61;100.00;104944.66;4802181;29;20034;-77
2022/03/19 07:00:08;;;;;;;19.05;3.90;;;;;;;1.75;100.00;104954.91;4814337;29;20038;-78
2022/03/19 07:02:45;;;;;;;13.75;3.70;;;;;;;1.89;100.00;104930.69;4824173;29;20034;-78
2022/03/19 07:05:11;;;;;;;16.25;3.50;;;;;;;1.98;100.00;104925.09;4776782;30;20035;-78
2022/03/19 07:07:36;;;;;;;18.20;4.22;;;;;;;2.19;100.00;104931.63;4789395;29;20036;-78
2022/03/19 07:10:01;;;;;;;16.88;3.72;;;;;;;2.29;100.00;104917.16;4760724;30;20067;-78
2022/03/19 07:12:27;;;;;;;13.98;3.33;;;;;;;2.56;100.00;104943.88;4790836;30;20100;-78
2022/03/19 07:14:52;;;;;;;12.40;3.38;;;;;;;2.66;100.00;104932.03;4792766;29;20395;-78
2022/03/19 07:17:18;;;;;;;14.00;3.65;;;;;;;2.80;100.00;104942.25;4775770;30;20126;-78
2022/03/19 07:19:43;;;;;;;14.63;3.85;;;;;;;2.80;100.00;104942.25;4800521;29;20027;-79
2022/03/19 07:22:08;;;;;;;14.93;3.58;;;;;;;2.88;100.00;104939.38;4794328;29;20042;-78
2022/03/19 07:24:35;;;;;;;15.27;3.20;;;;;;;2.82;100.00;104913.84;4808701;29;20165;-78
2022/03/19 07:27:01;;;;;;;12.60;2.95;;;;;;;3.00;100.00;104923.03;4781846;29;20117;-77
2022/03/19 07:29:26;;;;;;;10.82;2.95;;;;;;;3.20;100.00;104922.38;4793935;29;20127;-77
2022/03/19 07:31:53;;;;;;;19.08;3.80;;;;;;;3.42;100.00;104936.75;4814830;29;20114;-77
2022/03/19 07:34:18;;;;;;;15.85;3.40;;;;;;;3.57;100.00;104932.69;4809233;29;20030;-77
2022/03/19 07:36:44;;;;;;;18.05;3.50;;;;;;;3.73;100.00;104933.91;4763060;29;20035;-78
2022/03/19 07:39:09;;;;;;;14.13;3.10;;;;;;;3.76;100.00;104916.97;4799210;29;20038;-77
2022/03/19 07:41:48;;;;;;;14.60;3.28;;;;;;;3.86;100.00;104930.84;4780288;29;20062;-77
2022/03/19 07:44:15;;;;;;;14.40;3.25;;;;;;;3.85;100.00;104935.28;4809621;29;20034;-76
2022/03/19 07:46:42;;;;;;;17.58;3.30;;;;;;;4.01;100.00;104932.97;4818686;29;20046;-77
2022/03/19 07:49:08;;;;;;;14.15;3.08;;;;;;;4.10;100.00;104935.28;4800026;29;20054;-77
2022/03/19 07:51:33;;;;;;;11.30;2.83;;;;;;;4.04;100.00;104931.97;4776458;29;20031;-77
2022/03/19 07:53:59;;;;;;;17.67;3.25;;;;;;;3.95;100.00;104925.19;4780907;29;20389;-77
2022/03/19 07:56:24;;;;;;;18.40;3.38;;;;;;;4.15;100.00;104938.66;4790527;30;20058;-76
2022/03/19 07:58:50;;;;;;;13.30;2.90;;;;;;;4.32;100.00;104939.84;4758453;29;20043;-76
2022/03/19 08:01:17;;;;;;;11.00;3.08;;;;;;;4.41;100.00;104937.72;4823841;29;20512;-76
2022/03/19 08:03:43;;;;;;;10.77;2.80;;;;;;;4.49;100.00;104926.75;4808663;29;20125;-76
2022/03/19 08:06:09;;;;;;;13.25;2.88;;;;;;;4.75;100.00;104932.88;4782316;29;20039;-76
2022/03/19 08:08:37;;;;;;;11.30;2.63;;;;;;;4.87;100.00;104929.75;4766249;29;20393;-76
2022/03/19 08:11:03;;;;;;;13.48;2.60;;;;;;;4.89;100.00;104935.88;4808924;29;20108;-77
2022/03/19 08:13:29;;;;;;;11.02;2.55;;;;;;;4.58;100.00;104883.72;4824023;29;20039;-76
2022/03/19 08:15:54;;;;;;;14.48;3.17;;;;;;;4.92;100.00;104919.75;4803013;29;20118;-77
2022/03/19 08:18:20;;;;;;;12.15;2.53;;;;;;;4.97;100.00;104939.13;4773168;30;20039;-76
2022/03/19 08:20:47;;;;;;;13.82;2.72;;;;;;;4.74;100.00;104888.47;4777117;29;20516;-77
2022/03/19 08:23:16;;;;;;;13.43;2.72;;;;;;;4.88;100.00;104935.00;4793294;29;20030;-77
2022/03/19 08:25:42;;;;;;;9.30;3.05;;;;;;;4.90;100.00;104954.53;4826684;29;20061;-77
2022/03/19 08:28:08;;;;;;;15.48;3.10;;;;;;;4.80;100.00;104944.25;4806403;29;20059;-76
2022/03/19 08:30:34;;;;;;;11.90;3.28;;;;;;;4.75;100.00;104946.22;4783352;29;20039;-76
2022/03/19 08:33:00;;;;;;;13.73;3.13;;;;;;;4.78;100.00;104944.31;4797932;29;20043;-76
2022/03/19 08:35:26;;;;;;;13.00;3.00;;;;;;;4.92;100.00;104947.31;4794327;29;20035;-76
2022/03/19 08:40:15;;;;;;;17.92;3.03;;;;;;;5.04;100.00;104943.28;4773488;30;20517;-76
2022/03/19 08:40:39;;;;;;;13.60;2.53;;;;;;;5.32;100.00;104940.38;4803537;29;20058;-76
2022/03/19 08:43:04;;;;;;;9.20;2.28;;;;;;;5.64;100.00;104938.16;4807388;29;20361;-76
2022/03/19 08:45:30;;;;;;;13.25;2.83;;;;;;;5.77;100.00;104928.69;4795881;29;20066;-76
2022/03/19 08:47:55;;;;;;;11.88;2.38;;;;;;;5.97;100.00;104924.31;4805638;29;20030;-76
2022/03/19 08:50:22;;;;;;;10.27;2.50;;;;;;;6.17;100.00;104929.63;4775866;29;20161;-76
2022/03/19 08:52:47;;;;;;;11.55;2.80;;;;;;;6.37;100.00;104931.41;4793571;29;20065;-76
2022/03/19 08:55:13;;;;;;;9.98;2.20;;;;;;;6.49;100.00;104924.59;4758654;30;20439;-76
2022/03/19 08:57:38;;;;;;;13.18;2.17;;;;;;;6.64;100.00;104933.75;4757519;30;20398;-76
2022/03/19 09:00:06;;;;;;;11.20;2.25;;;;;;;6.90;100.00;104948.56;4788786;29;20367;-76
2022/03/19 09:02:33;;;;;;;12.45;2.33;;;;;;;6.99;100.00;104962.41;4804577;29;20030;-76
2022/03/19 09:04:58;;;;;;;10.27;2.42;;;;;;;6.92;100.00;104938.66;4824898;29;20060;-76
2022/03/19 09:07:24;;;;;;;11.68;1.98;;;;;;;7.02;100.00;104946.19;4774000;29;20125;-76
2022/03/19 09:09:52;;;;;;;15.27;2.30;;;;;;;7.11;100.00;104946.66;4786983;29;20050;-77
2022/03/19 09:12:20;;;;;;;12.07;2.30;;;;;;;7.16;100.00;104932.13;4821207;29;20040;-76
2022/03/19 09:14:46;;;;;;;10.35;2.00;;;;;;;7.11;100.00;104911.84;4805806;29;20035;-76
2022/03/19 09:17:11;;;;;;;10.70;2.38;;;;;;;7.32;100.00;104931.34;4792789;29;20035;-75
2022/03/19 09:19:37;;;;;;;7.80;1.60;;;;;;;7.49;100.00;104959.03;4788971;29;20039;-76
2022/03/19 09:22:04;;;;;;;10.70;1.85;;;;;;;7.41;100.00;104930.88;4786311;29;20103;-76
2022/03/19 09:24:30;;;;;;;5.65;1.65;;;;;;;7.57;100.00;104958.66;4768639;29;20126;-76
2022/03/19 09:26:55;;;;;;;10.80;1.80;;;;;;;7.61;100.00;104959.38;4773582;29;20135;-77
2022/03/19 09:29:21;;;;;;;5.38;1.50;;;;;;;7.76;100.00;104953.22;4789004;29;20031;-76
2022/03/19 09:31:47;;;;;;;11.63;1.88;;;;;;;7.88;100.00;104944.56;4791718;29;20374;-76
2022/03/19 09:34:12;;;;;;;7.45;1.63;;;;;;;7.98;100.00;104956.53;4801602;29;20127;-77
2022/03/19 09:36:37;;;;;;;10.70;2.67;;;;;;;8.10;100.00;104959.50;4799106;29;20454;-76
2022/03/19 09:39:04;;;;;;;8.00;1.70;;;;;;;8.20;100.00;104955.41;4797627;29;20407;-77
2022/03/19 09:41:29;;;;;;;7.45;1.42;;;;;;;8.05;100.00;104934.75;4822836;29;20069;-77
2022/03/19 09:43:59;;;;;;;5.40;1.70;;;;;;;8.25;100.00;104945.28;4803361;29;20027;-77
2022/03/19 09:46:25;;;;;;;6.45;1.50;;;;;;;8.34;100.00;104950.16;4824478;29;20038;-77
2022/03/19 09:48:53;;;;;;;6.95;1.50;;;;;;;8.30;100.00;104926.25;4824661;29;20057;-77
2022/03/19 09:51:21;;;;;;;11.40;2.22;;;;;;;8.39;100.00;104939.22;4794700;29;20042;-77
2022/03/19 09:53:47;;;;;;;7.45;1.30;;;;;;;8.50;100.00;104939.47;4780806;29;20035;-77
2022/03/19 09:56:12;;;;;;;5.30;1.35;;;;;;;8.46;100.00;104930.72;4787528;29;20043;-77
2022/03/19 09:58:39;;;;;;;6.72;1.55;;;;;;;8.66;100.00;104952.94;4788227;29;20636;-77
2022/03/19 10:01:05;;;;;;;8.93;1.35;;;;;;;8.57;100.00;104940.00;4782099;29;20031;-78
2022/03/19 10:03:38;;;;;;;11.45;1.98;;;;;;;8.58;100.00;104931.88;4799442;29;20031;-77
2022/03/19 10:08:58;;;;;;;5.63;1.48;;;;;;;8.79;100.00;104966.56;4803334;29;20042;-77
2022/03/19 10:11:30;;;;;;;6.00;1.40;;;;;;;8.75;100.00;104960.50;4783916;29;20054;-77
2022/03/19 10:13:56;;;;;;;6.00;1.98;;;;;;;8.79;100.00;104962.03;4791093;29;20072;-77
2022/03/19 10:16:28;;;;;;;8.20;1.33;;;;;;;8.85;100.00;104972.44;4804722;29;20185;-78
2022/03/19 10:19:03;;;;;;;4.65;1.05;;;;;;;8.88;100.00;104971.41;4795550;29;20031;-79
2022/03/19 10:21:34;;;;;;;3.78;0.98;;;;;;;8.88;100.00;104971.41;4807478;29;20034;-76
2022/03/19 10:24:01;;;;;;;4.30;1.15;;;;;;;8.97;100.00;104964.66;4788484;29;20034;-80
2022/03/19 10:26:34;;;;;;;2.45;0.90;;;;;;;8.66;100.00;104889.34;4776034;29;20039;-77
2022/03/19 10:29:03;;;;;;;5.47;1.08;;;;;;;9.02;100.00;104936.56;4775678;29;20046;-76
2022/03/19 10:31:31;;;;;;;2.90;0.80;;;;;;;9.21;100.00;104957.91;4792349;29;20411;-76
2022/03/19 10:33:57;;;;;;;4.13;1.05;;;;;;;9.02;100.00;104925.81;4805781;29;20474;-78
2022/03/19 10:36:30;;;;;;;7.05;1.00;;;;;;;9.29;100.00;104961.00;4801537;29;20039;-76
2022/03/19 10:38:55;;;;;;;4.30;0.90;;;;;;;9.28;100.00;104951.19;4802378;29;20046;-79
2022/03/19 10:41:21;;;;;;;4.35;1.23;;;;;;;9.21;100.00;104931.00;4810540;29;20058;-78
2022/03/19 10:43:48;;;;;;;3.70;0.80;;;;;;;9.27;100.00;104935.16;4794881;29;20067;-78
2022/03/19 10:46:17;;;;;;;3.28;1.00;;;;;;;9.40;100.00;104950.50;4809193;29;20034;-78
2022/03/19 10:48:47;;;;;;;6.15;1.30;;;;;;;9.44;100.00;104944.91;4804489;29;20168;-78
2022/03/19 10:51:12;;;;;;;7.07;1.55;;;;;;;9.43;100.00;104956.63;4778519;29;20075;-78
2022/03/19 10:53:38;;;;;;;5.10;1.50;;;;;;;9.35;100.00;104928.38;4778217;29;20049;-78
2022/03/19 10:56:06;;;;;;;5.00;1.50;;;;;;;9.47;100.00;104953.69;4789561;29;20043;-78
2022/03/19 10:58:32;;;;;;;4.45;1.70;;;;;;;9.54;100.00;104948.81;4809137;29;20061;-78
2022/03/19 11:01:00;;;;;;;3.25;1.15;;;;;;;9.61;100.00;104939.44;4783458;29;20069;-78
2022/03/19 11:03:30;;;;;;;6.25;1.35;;;;;;;9.63;100.00;104942.88;4807235;29;20113;-77
2022/03/19 11:05:58;;;;;;;4.35;1.33;;;;;;;9.77;100.00;104948.31;4809266;29;20026;-77
2022/03/19 11:08:24;;;;;;;3.55;1.40;;;;;;;9.59;100.00;104917.13;4766585;30;20054;-77
2022/03/19 11:10:52;;;;;;;4.38;1.85;;;;;;;9.61;100.00;104929.53;4808942;29;20362;-77
2022/03/19 11:13:24;;;;;;;4.35;1.05;;;;;;;9.79;100.00;104934.75;4808981;29;20030;-77
2022/03/19 11:15:54;;;;;;;3.95;1.02;;;;;;;9.71;100.00;104924.47;4811049;29;20095;-78
2022/03/19 11:18:22;;;;;;;3.25;1.00;;;;;;;9.72;100.00;104915.44;4798954;29;20035;-78
2022/03/19 11:20:48;;;;;;;4.50;1.10;;;;;;;9.67;100.00;104900.53;4786719;29;20366;-78
2022/03/19 11:23:18;;;;;;;2.42;0.98;;;;;;;9.83;100.00;104918.34;4797708;29;20494;-78
2022/03/19 11:25:50;;;;;;;3.25;1.02;;;;;;;9.83;100.00;104912.97;4803802;29;20042;-78